MZBZ/BZE METAR and TAF weather

Enter ICAO airport designator
Station Type Date Time Source
MZBZ METAR 2020/11/27 00:00 UTC NOAA

MZBZ 270000Z 09004KT 9999 FEW021 SCT045 27/24 A2993 Q1013 NOSIG


Station Type Date Time Source
MZBZ Decoded METAR 2020/11/27 00:00 UTC NOAA

Belize / Phillip Goldston Intl. Airport, Belize (MZBZ) 17-32N 088-18W 5M
Nov 26, 2020 - 07:00 PM EST / 2020.11.27 0000 UTC
Wind: from the E (090 degrees) at 5 MPH (4 KT):0
Visibility: greater than 7 mile(s):0
Sky conditions: partly cloudy
Temperature: 80 F (27 C)
Dew Point: 75 F (24 C)
Relative Humidity: 83%
Pressure (altimeter): 29.93 in. Hg (1013 hPa)
ob: MZBZ 270000Z 09004KT 9999 FEW021 SCT045 27/24 A2993 Q1013 NOSIG
cycle: 0

Station Type Date Time Source
MZBZ TAF 2020/11/26 21:00 UTC NOAA

FTBH31 MZBZ 262100 TAF MZBZ 262100Z 2700/2724 08006KT 9999 SCT022

Example: see airport list